createdAt,value
2022-12-31T00:01:10.564Z,99727.25
2022-12-31T00:03:37.289Z,99736.81
2022-12-31T00:06:17.976Z,99736.59
2022-12-31T00:08:44.827Z,99731.66
2022-12-31T00:11:11.404Z,99742.63
2022-12-31T00:13:38.116Z,99749.03
2022-12-31T00:16:12.439Z,99748.97
2022-12-31T00:18:39.593Z,99733.22
2022-12-31T00:21:07.433Z,99745.75
2022-12-31T00:23:34.070Z,99744.06
2022-12-31T00:26:08.219Z,99750.13
2022-12-31T00:28:35.863Z,99757.75
2022-12-31T00:31:06.863Z,99748.34
2022-12-31T00:33:33.418Z,99754.94
2022-12-31T00:36:06.064Z,99753.88
2022-12-31T00:38:32.480Z,99744.81
2022-12-31T00:40:59.016Z,99754.78
2022-12-31T00:43:25.371Z,99758.88
2022-12-31T00:45:51.937Z,99765.81
2022-12-31T00:48:18.312Z,99768.38
2022-12-31T00:50:45.140Z,99767.41
2022-12-31T00:53:11.491Z,99783.84
2022-12-31T00:55:37.861Z,99781.75
2022-12-31T00:58:04.244Z,99786.56
2022-12-31T01:00:30.656Z,99800.63
2022-12-31T01:02:57.086Z,99788.09
2022-12-31T01:05:23.581Z,99785.47
2022-12-31T01:07:49.945Z,99796.06
2022-12-31T01:10:36.366Z,99795.75
2022-12-31T01:13:02.767Z,99801.97
2022-12-31T01:15:32.501Z,99792.63
2022-12-31T01:17:59.700Z,99794.03
2022-12-31T01:20:25.987Z,99785.78
2022-12-31T01:22:52.467Z,99795.09
2022-12-31T01:25:18.852Z,99805.53
2022-12-31T01:27:45.268Z,99810.28
2022-12-31T01:30:11.888Z,99817.97
2022-12-31T01:32:38.236Z,99810.91
2022-12-31T01:35:04.778Z,99816.44
2022-12-31T01:37:31.119Z,99814.66
2022-12-31T01:39:57.413Z,99821.94
2022-12-31T01:42:23.754Z,99817.78
2022-12-31T01:44:52.251Z,99823.38
2022-12-31T01:47:21.938Z,99821.25
2022-12-31T01:49:51.392Z,99835.91
2022-12-31T01:52:27.425Z,99836.78
2022-12-31T01:55:00.574Z,99822.41
2022-12-31T01:57:31.657Z,99813.41
2022-12-31T01:59:59.402Z,99814.66
2022-12-31T02:02:28.727Z,99805.69
2022-12-31T02:04:57.809Z,99814.78
2022-12-31T02:07:30.515Z,99803.06
2022-12-31T02:10:00.354Z,99816.06
2022-12-31T02:12:27.143Z,99817.25
2022-12-31T02:14:54.372Z,99824.56
2022-12-31T02:17:31.343Z,99820.66
2022-12-31T02:20:17.790Z,99830.44
2022-12-31T02:22:56.434Z,99818.66
2022-12-31T02:25:44.851Z,99801.00
2022-12-31T02:28:17.292Z,99811.53
2022-12-31T02:30:59.560Z,99805.78
2022-12-31T02:33:32.060Z,99809.59
2022-12-31T02:36:03.437Z,99802.69
2022-12-31T02:38:35.912Z,99805.97
2022-12-31T02:41:03.122Z,99806.13
2022-12-31T02:43:29.520Z,99811.22
2022-12-31T02:46:15.721Z,99810.13
2022-12-31T02:48:54.272Z,99797.69
2022-12-31T02:51:42.565Z,99813.94
2022-12-31T02:54:18.821Z,99821.00
2022-12-31T02:57:05.849Z,99815.38
2022-12-31T02:59:53.811Z,99817.31
2022-12-31T03:02:21.772Z,99812.34
2022-12-31T03:05:06.724Z,99806.06
2022-12-31T03:07:33.461Z,99809.81
2022-12-31T03:10:00.997Z,99816.09
2022-12-31T03:12:48.022Z,99826.38
2022-12-31T03:15:20.521Z,99818.78
2022-12-31T03:18:04.204Z,99826.25
2022-12-31T03:20:51.035Z,99826.41
2022-12-31T03:23:22.713Z,99832.00
2022-12-31T03:25:49.037Z,99835.47
2022-12-31T03:28:17.076Z,99827.81
2022-12-31T03:30:45.681Z,99828.13
2022-12-31T03:33:12.391Z,99839.25
2022-12-31T03:35:39.378Z,99815.47
2022-12-31T03:38:06.363Z,99821.75
2022-12-31T03:40:34.938Z,99822.84
2022-12-31T03:43:04.806Z,99820.84
2022-12-31T03:45:40.140Z,99825.50
2022-12-31T03:48:07.893Z,99829.38
2022-12-31T03:50:45.632Z,99832.91
2022-12-31T03:53:19.063Z,99824.41
2022-12-31T03:55:48.801Z,99826.88
2022-12-31T03:58:15.305Z,99826.31
2022-12-31T04:00:48.595Z,99829.38
2022-12-31T04:03:18.074Z,99824.44
2022-12-31T04:05:50.405Z,99822.34
2022-12-31T04:08:22.670Z,99818.69
2022-12-31T04:10:56.085Z,99824.13
2022-12-31T04:13:26.609Z,99818.25
2022-12-31T04:15:59.130Z,99822.75
2022-12-31T04:18:29.909Z,99822.63
2022-12-31T04:21:07.277Z,99823.47
2022-12-31T04:23:36.409Z,99827.81
2022-12-31T04:26:02.821Z,99838.16
2022-12-31T04:28:29.108Z,99840.72
2022-12-31T04:30:55.398Z,99851.75
2022-12-31T04:33:21.716Z,99853.38
2022-12-31T04:35:48.148Z,99857.03
2022-12-31T04:38:14.657Z,99855.72
2022-12-31T04:41:01.227Z,99847.66
2022-12-31T04:43:27.818Z,99853.66
2022-12-31T04:45:54.206Z,99857.22
2022-12-31T04:48:20.661Z,99861.34
2022-12-31T04:50:47.237Z,99868.06
2022-12-31T04:53:13.685Z,99867.44
2022-12-31T04:55:41.485Z,99862.16
2022-12-31T04:58:08.463Z,99848.59
2022-12-31T05:00:34.938Z,99853.53
2022-12-31T05:03:01.332Z,99855.50
2022-12-31T05:05:27.769Z,99845.13
2022-12-31T05:07:54.273Z,99841.28
2022-12-31T05:10:20.842Z,99836.66
2022-12-31T05:12:47.336Z,99848.34
2022-12-31T05:15:13.814Z,99839.56
2022-12-31T05:17:40.175Z,99827.81
2022-12-31T05:20:07.141Z,99822.53
2022-12-31T05:22:34.066Z,99826.06
2022-12-31T05:25:01.175Z,99813.78
2022-12-31T05:27:28.810Z,99819.72
2022-12-31T05:29:55.174Z,99816.44
2022-12-31T05:32:21.648Z,99821.97
2022-12-31T05:34:48.201Z,99810.06
2022-12-31T05:37:14.616Z,99803.59
2022-12-31T05:39:41.835Z,99801.97
2022-12-31T05:42:08.201Z,99803.44
2022-12-31T05:44:34.566Z,99802.88
2022-12-31T05:47:01.051Z,99809.25
2022-12-31T05:49:27.480Z,99807.72
2022-12-31T05:51:53.915Z,99809.47
2022-12-31T05:54:20.494Z,99813.97
2022-12-31T05:56:46.964Z,99827.59
2022-12-31T05:59:13.904Z,99840.13
2022-12-31T06:01:40.333Z,99843.56
2022-12-31T06:04:06.733Z,99840.63
2022-12-31T06:06:33.300Z,99854.53
2022-12-31T06:08:59.724Z,99852.06
2022-12-31T06:11:26.207Z,99851.25
2022-12-31T06:13:52.677Z,99860.03
2022-12-31T06:16:19.411Z,99858.91
2022-12-31T06:18:50.710Z,99866.03
2022-12-31T06:21:17.820Z,99865.41
2022-12-31T06:23:44.241Z,99864.03
2022-12-31T06:26:10.853Z,99871.94
2022-12-31T06:28:37.199Z,99880.91
2022-12-31T06:31:04.684Z,99885.28
2022-12-31T06:33:31.649Z,99886.53
2022-12-31T06:35:58.889Z,99880.66
2022-12-31T06:38:26.158Z,99875.22
2022-12-31T06:40:52.893Z,99885.41
2022-12-31T06:43:19.372Z,99881.88
2022-12-31T06:45:45.705Z,99881.88
2022-12-31T06:48:12.194Z,99888.81
2022-12-31T06:50:38.667Z,99885.56
2022-12-31T06:53:05.196Z,99883.56
2022-12-31T06:55:31.984Z,99871.19
2022-12-31T06:57:58.631Z,99868.06
2022-12-31T07:00:25.071Z,99876.97
2022-12-31T07:03:17.729Z,99879.69
2022-12-31T07:05:44.054Z,99873.84
2022-12-31T07:08:26.349Z,99876.09
2022-12-31T07:10:57.149Z,99861.47
2022-12-31T07:13:42.513Z,99868.28
2022-12-31T07:16:20.469Z,99867.28
2022-12-31T07:19:05.567Z,99871.16
2022-12-31T07:21:34.956Z,99876.31
2022-12-31T07:24:01.923Z,99865.47
2022-12-31T07:26:28.192Z,99870.63
2022-12-31T07:29:01.674Z,99861.25
2022-12-31T07:31:46.298Z,99883.03
2022-12-31T07:34:15.927Z,99884.28
2022-12-31T07:36:42.214Z,99883.47
2022-12-31T07:39:11.909Z,99886.25
2022-12-31T07:41:47.105Z,99897.94
2022-12-31T07:44:34.697Z,99900.97
2022-12-31T07:47:01.901Z,99892.91
2022-12-31T07:49:31.637Z,99899.47
2022-12-31T07:52:00.951Z,99905.31
2022-12-31T07:54:27.275Z,99905.19
2022-12-31T07:56:53.715Z,99896.66
2022-12-31T07:59:46.403Z,99904.94
2022-12-31T08:02:27.865Z,99900.16
2022-12-31T08:05:00.388Z,99905.78
2022-12-31T08:07:29.785Z,99904.31
2022-12-31T08:10:17.995Z,99901.56
2022-12-31T08:12:45.496Z,99914.69
2022-12-31T08:15:12.885Z,99915.28
2022-12-31T08:17:39.336Z,99915.97
2022-12-31T08:20:05.932Z,99909.88
2022-12-31T08:22:43.104Z,99917.34
2022-12-31T08:25:23.118Z,99920.69
2022-12-31T08:27:52.493Z,99911.75
2022-12-31T08:30:23.551Z,99902.38
2022-12-31T08:33:02.168Z,99898.97
2022-12-31T08:35:48.729Z,99909.88
2022-12-31T08:38:33.645Z,99910.00
2022-12-31T08:41:00.049Z,99908.88
2022-12-31T08:43:49.673Z,99914.38
2022-12-31T08:46:36.300Z,99910.69
2022-12-31T08:49:02.754Z,99913.41
2022-12-31T08:51:29.196Z,99920.44
2022-12-31T08:53:55.733Z,99923.59
2022-12-31T08:56:50.317Z,99927.16
2022-12-31T08:59:20.185Z,99933.63
2022-12-31T09:01:56.208Z,99927.63
2022-12-31T09:04:30.311Z,99927.19
2022-12-31T09:07:01.539Z,99923.28
2022-12-31T09:09:36.284Z,99906.06
2022-12-31T09:12:08.745Z,99918.16
2022-12-31T09:14:47.104Z,99913.19
2022-12-31T09:17:13.502Z,99913.53
2022-12-31T09:19:39.809Z,99913.03
2022-12-31T09:22:06.306Z,99923.16
2022-12-31T09:24:32.786Z,99926.94
2022-12-31T09:27:22.474Z,99935.50
2022-12-31T09:29:53.781Z,99938.53
2022-12-31T09:32:23.150Z,99929.28
2022-12-31T09:34:55.104Z,99934.25
2022-12-31T09:37:41.678Z,99937.44
2022-12-31T09:40:28.025Z,99936.56
2022-12-31T09:43:06.167Z,99941.44
2022-12-31T09:45:55.212Z,99934.19
2022-12-31T09:48:40.530Z,99938.41
2022-12-31T09:51:06.966Z,99931.97
2022-12-31T09:53:36.546Z,99941.47
2022-12-31T09:56:05.834Z,99946.78
2022-12-31T09:58:32.375Z,99945.56
2022-12-31T10:01:24.610Z,99944.06
2022-12-31T10:04:06.297Z,99941.81
2022-12-31T10:06:39.042Z,99952.53
2022-12-31T10:09:08.383Z,99948.03
2022-12-31T10:11:37.942Z,99929.88
2022-12-31T10:14:10.301Z,99927.25
2022-12-31T10:16:49.621Z,99924.81
2022-12-31T10:19:51.697Z,99923.69
2022-12-31T10:22:27.848Z,99928.22
2022-12-31T10:25:03.348Z,99914.66
2022-12-31T10:27:34.010Z,99909.44
2022-12-31T10:30:04.028Z,99914.69
2022-12-31T10:32:33.663Z,99914.91
2022-12-31T10:35:02.269Z,99914.59
2022-12-31T10:37:40.433Z,99894.56
2022-12-31T10:40:16.005Z,99902.47
2022-12-31T10:42:42.445Z,99900.34
2022-12-31T10:45:30.425Z,99903.22
2022-12-31T10:48:15.755Z,99893.41
2022-12-31T10:51:02.532Z,99877.78
2022-12-31T10:54:00.950Z,99885.66
2022-12-31T10:56:46.153Z,99880.72
2022-12-31T10:59:27.815Z,99876.09
2022-12-31T11:01:54.209Z,99889.50
2022-12-31T11:04:39.243Z,99898.06
2022-12-31T11:07:14.963Z,99886.72
2022-12-31T11:09:41.216Z,99878.31
2022-12-31T11:12:21.206Z,99876.28
2022-12-31T11:14:47.709Z,99879.34
2022-12-31T11:17:14.142Z,99868.53
2022-12-31T11:19:59.167Z,99876.53
2022-12-31T11:22:25.486Z,99876.72
2022-12-31T11:25:10.685Z,99887.75
2022-12-31T11:27:49.645Z,99875.25
2022-12-31T11:30:25.203Z,99883.63
2022-12-31T11:32:51.574Z,99890.91
2022-12-31T11:35:17.880Z,99893.16
2022-12-31T11:38:01.005Z,99883.03
2022-12-31T11:40:36.767Z,99879.66
2022-12-31T11:43:03.091Z,99876.56
2022-12-31T11:45:52.739Z,99891.88
2022-12-31T11:48:32.705Z,99899.53
2022-12-31T11:50:59.344Z,99899.59
2022-12-31T11:53:28.870Z,99893.06
2022-12-31T11:56:01.473Z,99882.97
2022-12-31T11:58:29.077Z,99874.22
2022-12-31T12:01:07.851Z,99872.00
2022-12-31T12:03:38.531Z,99884.94
2022-12-31T12:06:05.183Z,99881.03
2022-12-31T12:08:32.552Z,99869.19
2022-12-31T12:11:03.967Z,99868.13
2022-12-31T12:13:30.276Z,99855.38
2022-12-31T12:16:06.145Z,99854.34
2022-12-31T12:18:40.734Z,99854.19
2022-12-31T12:21:17.519Z,99850.03
2022-12-31T12:23:57.561Z,99840.47
2022-12-31T12:26:34.199Z,99848.00
2022-12-31T12:29:09.375Z,99837.38
2022-12-31T12:31:36.122Z,99849.94
2022-12-31T12:34:03.137Z,99854.63
2022-12-31T12:36:29.502Z,99849.69
2022-12-31T12:39:03.707Z,99856.47
2022-12-31T12:41:30.479Z,99842.09
2022-12-31T12:44:04.512Z,99841.94
2022-12-31T12:46:33.249Z,99836.03
2022-12-31T12:49:00.299Z,99834.28
2022-12-31T12:51:29.682Z,99834.75
2022-12-31T12:54:01.650Z,99842.56
2022-12-31T12:56:39.601Z,99836.63
2022-12-31T12:59:21.737Z,99834.25
2022-12-31T13:02:02.427Z,99829.09
2022-12-31T13:04:47.914Z,99831.41
2022-12-31T13:07:44.651Z,99833.72
2022-12-31T13:10:20.952Z,99846.44
2022-12-31T13:13:22.919Z,99837.28
2022-12-31T13:15:36.372Z,99844.78
2022-12-31T13:18:21.722Z,99853.38
2022-12-31T13:20:54.581Z,99854.22
2022-12-31T13:23:39.634Z,99863.13
2022-12-31T13:26:32.906Z,99847.28
2022-12-31T13:29:02.013Z,99862.53
2022-12-31T13:31:33.831Z,99868.59
2022-12-31T13:34:02.721Z,99874.56
2022-12-31T13:36:32.713Z,99870.13
2022-12-31T13:39:00.776Z,99856.38
2022-12-31T13:41:30.228Z,99855.69
2022-12-31T13:43:58.978Z,99858.16
2022-12-31T13:46:32.497Z,99867.09
2022-12-31T13:49:01.968Z,99869.91
2022-12-31T13:51:41.911Z,99881.88
2022-12-31T13:54:26.763Z,99884.50
2022-12-31T13:56:54.103Z,99891.69
2022-12-31T13:59:22.469Z,99897.81
2022-12-31T14:01:54.829Z,99890.47
2022-12-31T14:04:30.841Z,99898.91
2022-12-31T14:07:00.295Z,99918.13
2022-12-31T14:09:28.947Z,99921.19
2022-12-31T14:12:14.041Z,99919.56
2022-12-31T14:14:43.626Z,99919.34
2022-12-31T14:17:34.274Z,99917.38
2022-12-31T14:20:22.184Z,99918.84
2022-12-31T14:23:07.621Z,99921.69
2022-12-31T14:25:52.231Z,99925.72
2022-12-31T14:28:25.469Z,99913.50
2022-12-31T14:30:59.310Z,99928.50
2022-12-31T14:33:28.899Z,99932.56
2022-12-31T14:36:14.061Z,99930.22
2022-12-31T14:38:59.623Z,99927.72
2022-12-31T14:41:26.527Z,99931.38
2022-12-31T14:44:08.085Z,99931.09
2022-12-31T14:46:37.595Z,99936.38
2022-12-31T14:49:16.046Z,99934.22
2022-12-31T14:51:42.482Z,99926.81
2022-12-31T14:54:29.044Z,99930.75
2022-12-31T14:56:55.734Z,99937.19
2022-12-31T14:59:34.415Z,99935.56
2022-12-31T15:02:25.176Z,99947.47
2022-12-31T15:05:03.294Z,99934.44
2022-12-31T15:07:35.565Z,99938.47
2022-12-31T15:10:23.114Z,99948.53
2022-12-31T15:13:01.579Z,99961.44
2022-12-31T15:15:35.085Z,99957.22
2022-12-31T15:18:22.754Z,99978.53
2022-12-31T15:20:55.268Z,99945.81
2022-12-31T15:23:23.227Z,99949.81
2022-12-31T15:25:52.949Z,99947.50
2022-12-31T15:28:42.275Z,99958.59
2022-12-31T15:31:20.075Z,99955.44
2022-12-31T15:33:55.148Z,99959.44
2022-12-31T15:36:39.021Z,99959.44
2022-12-31T15:39:11.633Z,99960.38
2022-12-31T15:42:10.311Z,99957.69
2022-12-31T15:44:52.652Z,99966.69
2022-12-31T15:47:28.257Z,99969.97
2022-12-31T15:49:55.401Z,99976.28
2022-12-31T15:52:42.655Z,99972.28
2022-12-31T15:55:16.353Z,99972.53
2022-12-31T15:57:43.532Z,99987.00
2022-12-31T16:00:21.874Z,99979.88
2022-12-31T16:02:57.096Z,99990.19
2022-12-31T16:05:26.384Z,99989.28
2022-12-31T16:08:01.841Z,99984.31
2022-12-31T16:10:34.831Z,99968.34
2022-12-31T16:13:10.722Z,99990.75
2022-12-31T16:15:43.091Z,100002.97
2022-12-31T16:18:10.847Z,100001.91
2022-12-31T16:20:42.420Z,100007.91
2022-12-31T16:23:27.808Z,100025.38
2022-12-31T16:26:02.804Z,100018.50
2022-12-31T16:28:33.325Z,100021.25
2022-12-31T16:31:04.019Z,100019.53
2022-12-31T16:33:31.333Z,100008.97
2022-12-31T16:35:59.368Z,100001.78
2022-12-31T16:38:39.098Z,99990.75
2022-12-31T16:41:22.223Z,99998.28
2022-12-31T16:43:49.509Z,100001.13
2022-12-31T16:46:42.906Z,100001.28
2022-12-31T16:49:22.484Z,100010.38
2022-12-31T16:51:49.719Z,100016.75
2022-12-31T16:54:36.508Z,100010.50
2022-12-31T16:57:06.176Z,100005.63
2022-12-31T16:59:45.240Z,100009.16
2022-12-31T17:02:25.617Z,100018.59
2022-12-31T17:04:56.546Z,100023.13
2022-12-31T17:07:37.583Z,100028.13
2022-12-31T17:10:13.820Z,100014.41
2022-12-31T17:13:25.593Z,100027.81
2022-12-31T17:15:40.816Z,100019.28
2022-12-31T17:18:08.322Z,100028.13
2022-12-31T17:20:39.429Z,100034.25
2022-12-31T17:23:12.689Z,100037.16
2022-12-31T17:25:42.892Z,100031.44
2022-12-31T17:28:23.827Z,100047.56
2022-12-31T17:30:50.739Z,100044.63
2022-12-31T17:33:24.209Z,100043.94
2022-12-31T17:36:09.278Z,100040.97
2022-12-31T17:38:36.076Z,100059.53
2022-12-31T17:41:09.116Z,100058.41
2022-12-31T17:43:38.014Z,100073.34
2022-12-31T17:46:34.036Z,100046.69
2022-12-31T17:49:09.875Z,100031.16
2022-12-31T17:51:45.531Z,100030.09
2022-12-31T17:54:15.362Z,100024.72
2022-12-31T17:56:47.656Z,100043.72
2022-12-31T17:59:25.816Z,100045.69
2022-12-31T18:01:57.723Z,100034.72
2022-12-31T18:04:24.434Z,100030.84
2022-12-31T18:06:56.810Z,100004.31
2022-12-31T18:09:26.221Z,100024.91
2022-12-31T18:12:01.286Z,100031.88
2022-12-31T18:14:36.970Z,100030.25
2022-12-31T18:17:03.547Z,100010.53
2022-12-31T18:20:03.558Z,100006.09
2022-12-31T18:22:20.593Z,99997.28
2022-12-31T18:24:54.985Z,100015.63
2022-12-31T18:27:32.230Z,100012.91
2022-12-31T18:30:05.114Z,100004.41
2022-12-31T18:32:40.805Z,100003.97
2022-12-31T18:35:40.392Z,100010.16
2022-12-31T18:38:10.835Z,100012.69
2022-12-31T18:40:46.835Z,100021.28
2022-12-31T18:43:15.353Z,100004.03
2022-12-31T18:45:42.727Z,99998.44
2022-12-31T18:48:09.579Z,99989.91
2022-12-31T18:50:36.507Z,100000.41
2022-12-31T18:53:10.019Z,99995.81
2022-12-31T18:55:40.227Z,100005.75
2022-12-31T18:58:07.405Z,99998.84
2022-12-31T19:00:42.017Z,100016.03
2022-12-31T19:03:19.354Z,99997.59
2022-12-31T19:05:50.683Z,100017.50
2022-12-31T19:08:24.160Z,100018.34
2022-12-31T19:10:53.852Z,100013.31
2022-12-31T19:13:23.288Z,100020.97
2022-12-31T19:15:51.558Z,100014.84
2022-12-31T19:18:20.738Z,100002.00
2022-12-31T19:20:50.987Z,100002.78
2022-12-31T19:23:19.007Z,99996.75
2022-12-31T19:25:49.359Z,99994.94
2022-12-31T19:28:22.821Z,99988.91
2022-12-31T19:30:56.003Z,99994.00
2022-12-31T19:33:25.564Z,100002.59
2022-12-31T19:35:57.911Z,100008.66
2022-12-31T19:38:28.868Z,100013.69
2022-12-31T19:40:58.998Z,100019.72
2022-12-31T19:43:28.371Z,100012.69
2022-12-31T19:45:55.105Z,100021.72
2022-12-31T19:48:32.376Z,100021.72
2022-12-31T19:51:03.614Z,100015.38
2022-12-31T19:53:34.366Z,100010.22
2022-12-31T19:56:06.534Z,100002.69
2022-12-31T19:58:33.179Z,100015.94
2022-12-31T20:01:02.799Z,100001.75
2022-12-31T20:03:36.739Z,100002.06
2022-12-31T20:06:05.453Z,100001.06
2022-12-31T20:08:39.440Z,100000.91
2022-12-31T20:11:14.069Z,100009.13
2022-12-31T20:13:44.248Z,100018.31
2022-12-31T20:16:15.363Z,100014.56
2022-12-31T20:18:45.602Z,100019.63
2022-12-31T20:21:17.852Z,100013.19
2022-12-31T20:23:44.607Z,100016.84
2022-12-31T20:26:14.504Z,100025.47
2022-12-31T20:28:47.004Z,100025.19
2022-12-31T20:31:14.838Z,100020.31
2022-12-31T20:33:45.344Z,100020.31
2022-12-31T20:36:18.804Z,100029.00
2022-12-31T20:38:51.195Z,100008.66
2022-12-31T20:41:22.235Z,100016.28
2022-12-31T20:43:49.047Z,100023.44
2022-12-31T20:46:24.345Z,100004.88
2022-12-31T20:48:51.694Z,100019.56
2022-12-31T20:51:24.867Z,100021.34
2022-12-31T20:53:58.885Z,100021.50
2022-12-31T20:56:29.684Z,100021.16
2022-12-31T20:58:59.168Z,100018.66
2022-12-31T21:01:55.178Z,100018.06
2022-12-31T21:04:22.495Z,100018.47
2022-12-31T21:06:51.481Z,100021.16
2022-12-31T21:09:22.025Z,100019.78
2022-12-31T21:12:07.153Z,100029.50
2022-12-31T21:14:41.322Z,100009.59
2022-12-31T21:17:14.816Z,100013.50
2022-12-31T21:19:41.849Z,100019.59
2022-12-31T21:22:08.848Z,100029.19
2022-12-31T21:24:35.453Z,100024.00
2022-12-31T21:27:05.019Z,100025.22
2022-12-31T21:29:50.371Z,100009.88
2022-12-31T21:32:26.560Z,100001.56
2022-12-31T21:35:14.981Z,99992.38
2022-12-31T21:37:57.907Z,99991.94
2022-12-31T21:40:27.762Z,99991.38
2022-12-31T21:42:58.377Z,99985.00
2022-12-31T21:45:27.942Z,99984.13
2022-12-31T21:48:13.020Z,99989.59
2022-12-31T21:50:39.681Z,100002.59
2022-12-31T21:53:06.250Z,100009.16
2022-12-31T21:55:51.364Z,100010.50
2022-12-31T21:58:27.050Z,100018.31
2022-12-31T22:01:13.047Z,100020.19
2022-12-31T22:03:45.307Z,100028.59
2022-12-31T22:06:20.636Z,100033.34
2022-12-31T22:08:48.824Z,100028.97
2022-12-31T22:11:18.729Z,100027.22
2022-12-31T22:13:48.844Z,100024.34
2022-12-31T22:16:17.302Z,100026.97
2022-12-31T22:18:44.522Z,100027.72
2022-12-31T22:21:18.775Z,100031.41
2022-12-31T22:23:50.032Z,100025.31
2022-12-31T22:26:17.539Z,100031.50
2022-12-31T22:28:47.503Z,100023.75
2022-12-31T22:31:19.797Z,100038.69
2022-12-31T22:33:49.278Z,100043.69
2022-12-31T22:36:17.774Z,100032.38
2022-12-31T22:38:44.484Z,100037.59
2022-12-31T22:41:15.704Z,100037.75
2022-12-31T22:43:46.119Z,100036.66
2022-12-31T22:46:19.089Z,100037.28
2022-12-31T22:48:46.425Z,100042.94
2022-12-31T22:51:16.359Z,100038.38
2022-12-31T22:53:48.320Z,100034.59
2022-12-31T22:56:17.941Z,100035.59
2022-12-31T22:58:48.703Z,100033.88
2022-12-31T23:01:20.250Z,100046.03
2022-12-31T23:03:51.209Z,100034.25
2022-12-31T23:06:21.236Z,100038.34
2022-12-31T23:09:06.938Z,100047.75
2022-12-31T23:11:36.863Z,100032.22
2022-12-31T23:14:22.557Z,100046.03
2022-12-31T23:17:30.818Z,100051.66
2022-12-31T23:20:16.100Z,100062.84
2022-12-31T23:23:01.150Z,100057.28
2022-12-31T23:25:33.412Z,100061.03
2022-12-31T23:28:05.323Z,100063.66
2022-12-31T23:30:32.236Z,100064.88
2022-12-31T23:33:04.921Z,100065.19
2022-12-31T23:35:37.988Z,100053.59
2022-12-31T23:38:04.824Z,100064.34
2022-12-31T23:40:34.560Z,100054.41
2022-12-31T23:43:05.603Z,100056.53
2022-12-31T23:45:36.309Z,100044.88
2022-12-31T23:48:03.079Z,100061.84
2022-12-31T23:50:29.621Z,100052.53
2022-12-31T23:52:56.219Z,100054.16
2022-12-31T23:55:28.524Z,100071.19
2022-12-31T23:57:57.907Z,100067.78
